sensor_id;sensor_type;location;lat;lon;timestamp;temperature;humidity
66013;DHT22;52783;50.502;8.190;2023-07-20T00:01:13;16.90;99.90
66013;DHT22;52783;50.502;8.190;2023-07-20T00:03:39;16.80;99.90
66013;DHT22;52783;50.502;8.190;2023-07-20T00:06:04;16.70;99.90
66013;DHT22;52783;50.502;8.190;2023-07-20T00:08:30;16.70;99.90
66013;DHT22;52783;50.502;8.190;2023-07-20T00:10:55;16.70;99.90
66013;DHT22;52783;50.502;8.190;2023-07-20T00:13:21;16.60;99.90
66013;DHT22;52783;50.502;8.190;2023-07-20T00:15:47;16.70;99.90
66013;DHT22;52783;50.502;8.190;2023-07-20T00:18:13;16.60;99.90
66013;DHT22;52783;50.502;8.190;2023-07-20T00:20:39;16.50;99.90
66013;DHT22;52783;50.502;8.190;2023-07-20T00:23:04;16.50;99.90
66013;DHT22;52783;50.502;8.190;2023-07-20T00:25:30;16.50;99.90
66013;DHT22;52783;50.502;8.190;2023-07-20T00:27:56;16.50;99.90
66013;DHT22;52783;50.502;8.190;2023-07-20T00:30:21;16.50;99.90
66013;DHT22;52783;50.502;8.190;2023-07-20T00:32:47;16.40;99.90
66013;DHT22;52783;50.502;8.190;2023-07-20T00:35:13;16.30;99.90
66013;DHT22;52783;50.502;8.190;2023-07-20T00:37:39;16.30;99.90
66013;DHT22;52783;50.502;8.190;2023-07-20T00:40:05;16.20;99.90
66013;DHT22;52783;50.502;8.190;2023-07-20T00:42:32;16.20;99.90
66013;DHT22;52783;50.502;8.190;2023-07-20T00:44:58;16.30;99.90
66013;DHT22;52783;50.502;8.190;2023-07-20T00:47:24;16.20;99.90
66013;DHT22;52783;50.502;8.190;2023-07-20T00:49:51;16.20;99.90
66013;DHT22;52783;50.502;8.190;2023-07-20T00:52:19;16.10;99.90
66013;DHT22;52783;50.502;8.190;2023-07-20T00:54:45;16.00;99.90
66013;DHT22;52783;50.502;8.190;2023-07-20T00:57:16;16.00;99.90
66013;DHT22;52783;50.502;8.190;2023-07-20T00:59:43;16.00;99.90
66013;DHT22;52783;50.502;8.190;2023-07-20T01:02:08;16.00;99.90
66013;DHT22;52783;50.502;8.190;2023-07-20T01:04:35;15.90;99.90
66013;DHT22;52783;50.502;8.190;2023-07-20T01:07:12;15.80;99.90
66013;DHT22;52783;50.502;8.190;2023-07-20T01:09:44;15.80;99.90
66013;DHT22;52783;50.502;8.190;2023-07-20T01:14:45;15.80;99.90
66013;DHT22;52783;50.502;8.190;2023-07-20T01:17:12;15.90;99.90
66013;DHT22;52783;50.502;8.190;2023-07-20T01:19:39;15.80;99.90
66013;DHT22;52783;50.502;8.190;2023-07-20T01:25:37;15.80;99.90
66013;DHT22;52783;50.502;8.190;2023-07-20T01:31:28;15.70;99.90
66013;DHT22;52783;50.502;8.190;2023-07-20T01:33:57;15.70;99.90
66013;DHT22;52783;50.502;8.190;2023-07-20T01:36:24;15.70;99.90
66013;DHT22;52783;50.502;8.190;2023-07-20T01:38:52;15.70;99.90
66013;DHT22;52783;50.502;8.190;2023-07-20T01:41:18;15.70;99.90
66013;DHT22;52783;50.502;8.190;2023-07-20T01:43:44;15.80;99.90
66013;DHT22;52783;50.502;8.190;2023-07-20T01:46:09;15.90;99.90
66013;DHT22;52783;50.502;8.190;2023-07-20T01:48:35;15.80;99.90
66013;DHT22;52783;50.502;8.190;2023-07-20T01:51:01;15.90;99.90
66013;DHT22;52783;50.502;8.190;2023-07-20T01:53:26;15.90;99.90
66013;DHT22;52783;50.502;8.190;2023-07-20T01:55:53;15.90;99.90
66013;DHT22;52783;50.502;8.190;2023-07-20T01:58:19;16.00;99.90
66013;DHT22;52783;50.502;8.190;2023-07-20T02:00:45;16.00;99.90
66013;DHT22;52783;50.502;8.190;2023-07-20T02:03:10;16.10;99.90
66013;DHT22;52783;50.502;8.190;2023-07-20T02:05:37;16.00;99.90
66013;DHT22;52783;50.502;8.190;2023-07-20T02:08:03;16.00;99.90
66013;DHT22;52783;50.502;8.190;2023-07-20T02:10:28;15.90;99.90
66013;DHT22;52783;50.502;8.190;2023-07-20T02:12:54;15.80;99.90
66013;DHT22;52783;50.502;8.190;2023-07-20T02:15:20;15.70;99.90
66013;DHT22;52783;50.502;8.190;2023-07-20T02:17:46;15.80;99.90
66013;DHT22;52783;50.502;8.190;2023-07-20T02:20:12;15.70;99.90
66013;DHT22;52783;50.502;8.190;2023-07-20T02:22:38;15.80;99.90
66013;DHT22;52783;50.502;8.190;2023-07-20T02:25:05;15.80;99.90
66013;DHT22;52783;50.502;8.190;2023-07-20T02:27:30;15.70;99.90
66013;DHT22;52783;50.502;8.190;2023-07-20T02:29:56;15.70;99.90
66013;DHT22;52783;50.502;8.190;2023-07-20T02:32:22;15.70;99.90
66013;DHT22;52783;50.502;8.190;2023-07-20T02:34:47;15.70;99.90
66013;DHT22;52783;50.502;8.190;2023-07-20T02:37:13;15.60;99.90
66013;DHT22;52783;50.502;8.190;2023-07-20T02:39:39;15.60;99.90
66013;DHT22;52783;50.502;8.190;2023-07-20T02:42:05;15.70;99.90
66013;DHT22;52783;50.502;8.190;2023-07-20T02:44:30;15.70;99.90
66013;DHT22;52783;50.502;8.190;2023-07-20T02:46:56;15.70;99.90
66013;DHT22;52783;50.502;8.190;2023-07-20T02:49:22;15.70;99.90
66013;DHT22;52783;50.502;8.190;2023-07-20T02:51:47;15.70;99.90
66013;DHT22;52783;50.502;8.190;2023-07-20T02:54:12;15.70;99.90
66013;DHT22;52783;50.502;8.190;2023-07-20T02:56:38;15.60;99.90
66013;DHT22;52783;50.502;8.190;2023-07-20T02:59:03;15.60;99.90
66013;DHT22;52783;50.502;8.190;2023-07-20T03:01:29;15.60;99.90
66013;DHT22;52783;50.502;8.190;2023-07-20T03:03:55;15.70;99.90
66013;DHT22;52783;50.502;8.190;2023-07-20T03:06:21;15.70;99.90
66013;DHT22;52783;50.502;8.190;2023-07-20T03:08:47;15.60;99.90
66013;DHT22;52783;50.502;8.190;2023-07-20T03:11:17;15.70;99.90
66013;DHT22;52783;50.502;8.190;2023-07-20T03:13:43;15.70;99.90
66013;DHT22;52783;50.502;8.190;2023-07-20T03:16:10;15.60;99.90
66013;DHT22;52783;50.502;8.190;2023-07-20T03:18:39;15.60;99.90
66013;DHT22;52783;50.502;8.190;2023-07-20T03:21:06;15.60;99.90
66013;DHT22;52783;50.502;8.190;2023-07-20T03:23:31;15.50;99.90
66013;DHT22;52783;50.502;8.190;2023-07-20T03:25:57;15.50;99.90
66013;DHT22;52783;50.502;8.190;2023-07-20T03:28:23;15.40;99.90
66013;DHT22;52783;50.502;8.190;2023-07-20T03:30:57;15.40;99.90
66013;DHT22;52783;50.502;8.190;2023-07-20T03:33:28;15.40;99.90
66013;DHT22;52783;50.502;8.190;2023-07-20T03:35:54;15.40;99.90
66013;DHT22;52783;50.502;8.190;2023-07-20T03:38:20;15.50;99.90
66013;DHT22;52783;50.502;8.190;2023-07-20T03:40:53;15.40;99.90
66013;DHT22;52783;50.502;8.190;2023-07-20T03:43:19;15.40;99.90
66013;DHT22;52783;50.502;8.190;2023-07-20T03:45:45;15.40;99.90
66013;DHT22;52783;50.502;8.190;2023-07-20T03:48:11;15.40;99.90
66013;DHT22;52783;50.502;8.190;2023-07-20T03:50:37;15.30;99.90
66013;DHT22;52783;50.502;8.190;2023-07-20T03:53:03;15.40;99.90
66013;DHT22;52783;50.502;8.190;2023-07-20T03:55:28;15.30;99.90
66013;DHT22;52783;50.502;8.190;2023-07-20T03:57:54;15.30;99.90
66013;DHT22;52783;50.502;8.190;2023-07-20T04:00:20;15.30;99.90
66013;DHT22;52783;50.502;8.190;2023-07-20T04:02:45;15.30;99.90
66013;DHT22;52783;50.502;8.190;2023-07-20T04:05:11;15.30;99.90
66013;DHT22;52783;50.502;8.190;2023-07-20T04:07:36;15.30;99.90
66013;DHT22;52783;50.502;8.190;2023-07-20T04:10:02;15.30;99.90
66013;DHT22;52783;50.502;8.190;2023-07-20T04:12:28;15.40;99.90
66013;DHT22;52783;50.502;8.190;2023-07-20T04:14:53;15.40;99.90
66013;DHT22;52783;50.502;8.190;2023-07-20T04:17:19;15.20;99.90
66013;DHT22;52783;50.502;8.190;2023-07-20T04:19:44;15.10;99.90
66013;DHT22;52783;50.502;8.190;2023-07-20T04:22:10;15.20;99.90
66013;DHT22;52783;50.502;8.190;2023-07-20T04:24:35;15.10;99.90
66013;DHT22;52783;50.502;8.190;2023-07-20T04:27:01;15.20;99.90
66013;DHT22;52783;50.502;8.190;2023-07-20T04:29:27;15.40;99.90
66013;DHT22;52783;50.502;8.190;2023-07-20T04:31:52;15.50;99.90
66013;DHT22;52783;50.502;8.190;2023-07-20T04:34:18;15.50;99.90
66013;DHT22;52783;50.502;8.190;2023-07-20T04:36:43;15.50;99.90
66013;DHT22;52783;50.502;8.190;2023-07-20T04:39:10;15.60;99.90
66013;DHT22;52783;50.502;8.190;2023-07-20T04:41:35;15.60;99.90
66013;DHT22;52783;50.502;8.190;2023-07-20T04:44:01;15.70;99.90
66013;DHT22;52783;50.502;8.190;2023-07-20T04:46:26;15.80;99.90
66013;DHT22;52783;50.502;8.190;2023-07-20T04:48:52;16.10;99.90
66013;DHT22;52783;50.502;8.190;2023-07-20T04:51:17;16.40;99.90
66013;DHT22;52783;50.502;8.190;2023-07-20T04:53:46;16.60;99.90
66013;DHT22;52783;50.502;8.190;2023-07-20T04:56:12;17.10;99.90
66013;DHT22;52783;50.502;8.190;2023-07-20T04:58:37;17.30;99.90
66013;DHT22;52783;50.502;8.190;2023-07-20T05:01:03;17.60;99.90
66013;DHT22;52783;50.502;8.190;2023-07-20T05:03:28;17.80;99.90
66013;DHT22;52783;50.502;8.190;2023-07-20T05:05:54;18.20;99.90
66013;DHT22;52783;50.502;8.190;2023-07-20T05:08:20;18.40;99.90
66013;DHT22;52783;50.502;8.190;2023-07-20T05:10:47;18.40;99.90
66013;DHT22;52783;50.502;8.190;2023-07-20T05:13:13;18.40;99.90
66013;DHT22;52783;50.502;8.190;2023-07-20T05:15:38;18.70;99.90
66013;DHT22;52783;50.502;8.190;2023-07-20T05:18:04;18.90;99.90
66013;DHT22;52783;50.502;8.190;2023-07-20T05:20:30;18.70;99.90
66013;DHT22;52783;50.502;8.190;2023-07-20T05:22:57;19.10;99.90
66013;DHT22;52783;50.502;8.190;2023-07-20T05:25:22;18.70;99.90
66013;DHT22;52783;50.502;8.190;2023-07-20T05:27:48;18.70;99.90
66013;DHT22;52783;50.502;8.190;2023-07-20T05:30:14;18.50;99.90
66013;DHT22;52783;50.502;8.190;2023-07-20T05:32:39;18.20;99.90
66013;DHT22;52783;50.502;8.190;2023-07-20T05:35:05;18.30;99.90
66013;DHT22;52783;50.502;8.190;2023-07-20T05:37:31;18.70;99.90
66013;DHT22;52783;50.502;8.190;2023-07-20T05:39:57;18.70;99.90
66013;DHT22;52783;50.502;8.190;2023-07-20T05:42:23;18.60;99.90
66013;DHT22;52783;50.502;8.190;2023-07-20T05:44:48;18.70;99.90
66013;DHT22;52783;50.502;8.190;2023-07-20T05:47:15;18.40;99.90
66013;DHT22;52783;50.502;8.190;2023-07-20T05:49:40;18.40;99.90
66013;DHT22;52783;50.502;8.190;2023-07-20T05:52:06;18.30;99.90
66013;DHT22;52783;50.502;8.190;2023-07-20T05:54:32;18.40;99.90
66013;DHT22;52783;50.502;8.190;2023-07-20T05:56:57;18.10;99.90
66013;DHT22;52783;50.502;8.190;2023-07-20T05:59:23;18.10;99.90
66013;DHT22;52783;50.502;8.190;2023-07-20T06:01:49;18.20;99.90
66013;DHT22;52783;50.502;8.190;2023-07-20T06:04:15;18.60;99.90
66013;DHT22;52783;50.502;8.190;2023-07-20T06:06:41;18.30;99.90
66013;DHT22;52783;50.502;8.190;2023-07-20T06:09:07;18.20;99.90
66013;DHT22;52783;50.502;8.190;2023-07-20T06:11:37;18.20;99.90
66013;DHT22;52783;50.502;8.190;2023-07-20T06:14:03;18.40;99.90
66013;DHT22;52783;50.502;8.190;2023-07-20T06:16:28;18.10;99.90
66013;DHT22;52783;50.502;8.190;2023-07-20T06:18:54;18.00;99.90
66013;DHT22;52783;50.502;8.190;2023-07-20T06:21:19;18.10;99.90
66013;DHT22;52783;50.502;8.190;2023-07-20T06:23:45;18.00;99.90
66013;DHT22;52783;50.502;8.190;2023-07-20T06:26:11;17.90;99.90
66013;DHT22;52783;50.502;8.190;2023-07-20T06:28:37;18.00;99.90
66013;DHT22;52783;50.502;8.190;2023-07-20T06:31:03;18.20;99.90
66013;DHT22;52783;50.502;8.190;2023-07-20T06:33:29;18.40;99.90
66013;DHT22;52783;50.502;8.190;2023-07-20T06:35:55;18.10;99.90
66013;DHT22;52783;50.502;8.190;2023-07-20T06:38:22;18.30;99.90
66013;DHT22;52783;50.502;8.190;2023-07-20T06:40:49;18.20;99.90
66013;DHT22;52783;50.502;8.190;2023-07-20T06:43:15;18.10;99.90
66013;DHT22;52783;50.502;8.190;2023-07-20T06:45:41;18.10;99.90
66013;DHT22;52783;50.502;8.190;2023-07-20T06:48:07;18.30;99.90
66013;DHT22;52783;50.502;8.190;2023-07-20T06:50:33;18.10;99.90
66013;DHT22;52783;50.502;8.190;2023-07-20T06:52:59;18.40;99.90
66013;DHT22;52783;50.502;8.190;2023-07-20T06:55:25;18.70;99.90
66013;DHT22;52783;50.502;8.190;2023-07-20T06:57:51;18.80;99.90
66013;DHT22;52783;50.502;8.190;2023-07-20T07:00:17;18.80;99.90
66013;DHT22;52783;50.502;8.190;2023-07-20T07:02:42;18.70;99.90
66013;DHT22;52783;50.502;8.190;2023-07-20T07:05:08;18.70;99.90
66013;DHT22;52783;50.502;8.190;2023-07-20T07:07:34;18.80;99.90
66013;DHT22;52783;50.502;8.190;2023-07-20T07:10:00;18.80;99.90
66013;DHT22;52783;50.502;8.190;2023-07-20T07:12:26;19.10;99.90
66013;DHT22;52783;50.502;8.190;2023-07-20T07:14:52;19.10;99.90
66013;DHT22;52783;50.502;8.190;2023-07-20T07:17:18;19.10;99.90
66013;DHT22;52783;50.502;8.190;2023-07-20T07:19:44;19.30;99.90
66013;DHT22;52783;50.502;8.190;2023-07-20T07:22:10;19.30;99.90
66013;DHT22;52783;50.502;8.190;2023-07-20T07:24:35;19.30;99.90
66013;DHT22;52783;50.502;8.190;2023-07-20T07:27:02;19.80;99.90
66013;DHT22;52783;50.502;8.190;2023-07-20T07:29:28;20.60;99.90
66013;DHT22;52783;50.502;8.190;2023-07-20T07:31:53;21.40;99.90
66013;DHT22;52783;50.502;8.190;2023-07-20T07:34:19;22.00;99.90
66013;DHT22;52783;50.502;8.190;2023-07-20T07:36:44;22.70;99.90
66013;DHT22;52783;50.502;8.190;2023-07-20T07:39:10;23.20;99.90
66013;DHT22;52783;50.502;8.190;2023-07-20T07:41:36;22.80;99.90
66013;DHT22;52783;50.502;8.190;2023-07-20T07:44:02;21.80;99.90
66013;DHT22;52783;50.502;8.190;2023-07-20T07:46:27;21.40;99.90
66013;DHT22;52783;50.502;8.190;2023-07-20T07:48:53;21.10;99.90
66013;DHT22;52783;50.502;8.190;2023-07-20T07:51:18;21.50;99.90
66013;DHT22;52783;50.502;8.190;2023-07-20T07:53:45;22.40;99.90
66013;DHT22;52783;50.502;8.190;2023-07-20T07:56:11;22.70;99.90
66013;DHT22;52783;50.502;8.190;2023-07-20T07:58:36;21.90;99.90
66013;DHT22;52783;50.502;8.190;2023-07-20T08:01:02;21.70;99.90
66013;DHT22;52783;50.502;8.190;2023-07-20T08:03:28;21.50;99.90
66013;DHT22;52783;50.502;8.190;2023-07-20T08:05:54;22.00;99.90
66013;DHT22;52783;50.502;8.190;2023-07-20T08:08:25;22.90;99.90
66013;DHT22;52783;50.502;8.190;2023-07-20T08:10:53;23.00;99.90
66013;DHT22;52783;50.502;8.190;2023-07-20T08:13:19;22.40;99.90
66013;DHT22;52783;50.502;8.190;2023-07-20T08:15:49;23.70;99.90
66013;DHT22;52783;50.502;8.190;2023-07-20T08:18:15;23.20;99.90
66013;DHT22;52783;50.502;8.190;2023-07-20T08:20:44;24.10;99.90
66013;DHT22;52783;50.502;8.190;2023-07-20T08:23:09;23.40;99.90
66013;DHT22;52783;50.502;8.190;2023-07-20T08:25:36;24.10;99.90
66013;DHT22;52783;50.502;8.190;2023-07-20T08:28:04;24.70;99.90
66013;DHT22;52783;50.502;8.190;2023-07-20T08:30:43;24.70;99.90
66013;DHT22;52783;50.502;8.190;2023-07-20T08:33:16;24.80;99.90
66013;DHT22;52783;50.502;8.190;2023-07-20T08:35:46;25.00;99.90
66013;DHT22;52783;50.502;8.190;2023-07-20T08:38:12;25.20;99.90
66013;DHT22;52783;50.502;8.190;2023-07-20T08:40:45;24.90;99.90
66013;DHT22;52783;50.502;8.190;2023-07-20T08:43:11;24.20;99.90
66013;DHT22;52783;50.502;8.190;2023-07-20T08:45:39;23.90;99.90
66013;DHT22;52783;50.502;8.190;2023-07-20T08:48:06;23.80;99.90
66013;DHT22;52783;50.502;8.190;2023-07-20T08:50:32;24.50;99.90
66013;DHT22;52783;50.502;8.190;2023-07-20T08:52:59;24.40;99.90
66013;DHT22;52783;50.502;8.190;2023-07-20T08:55:28;24.50;99.90
66013;DHT22;52783;50.502;8.190;2023-07-20T08:57:58;24.80;99.90
66013;DHT22;52783;50.502;8.190;2023-07-20T09:00:25;24.20;99.90
66013;DHT22;52783;50.502;8.190;2023-07-20T09:02:53;25.20;99.90
66013;DHT22;52783;50.502;8.190;2023-07-20T09:05:23;25.30;99.90
66013;DHT22;52783;50.502;8.190;2023-07-20T09:07:50;24.70;99.90
66013;DHT22;52783;50.502;8.190;2023-07-20T09:10:16;24.50;99.90
66013;DHT22;52783;50.502;8.190;2023-07-20T09:12:43;24.70;99.90
66013;DHT22;52783;50.502;8.190;2023-07-20T09:15:10;24.20;99.90
66013;DHT22;52783;50.502;8.190;2023-07-20T09:17:36;24.20;99.90
66013;DHT22;52783;50.502;8.190;2023-07-20T09:20:08;24.00;99.90
66013;DHT22;52783;50.502;8.190;2023-07-20T09:22:39;23.10;99.90
66013;DHT22;52783;50.502;8.190;2023-07-20T09:25:18;22.50;99.90
66013;DHT22;52783;50.502;8.190;2023-07-20T09:27:47;23.10;99.90
66013;DHT22;52783;50.502;8.190;2023-07-20T09:30:14;23.60;99.90
66013;DHT22;52783;50.502;8.190;2023-07-20T09:32:47;23.90;99.90
66013;DHT22;52783;50.502;8.190;2023-07-20T09:35:14;23.70;99.90
66013;DHT22;52783;50.502;8.190;2023-07-20T09:37:45;23.80;99.90
66013;DHT22;52783;50.502;8.190;2023-07-20T09:40:15;24.40;99.90
66013;DHT22;52783;50.502;8.190;2023-07-20T09:42:41;24.90;99.90
66013;DHT22;52783;50.502;8.190;2023-07-20T09:45:08;25.60;99.90
66013;DHT22;52783;50.502;8.190;2023-07-20T09:47:38;26.10;99.90
66013;DHT22;52783;50.502;8.190;2023-07-20T09:50:08;26.40;99.90
66013;DHT22;52783;50.502;8.190;2023-07-20T09:52:41;25.50;99.90
66013;DHT22;52783;50.502;8.190;2023-07-20T09:55:10;25.20;99.90
66013;DHT22;52783;50.502;8.190;2023-07-20T09:57:37;25.20;99.90
66013;DHT22;52783;50.502;8.190;2023-07-20T10:00:07;25.10;99.90
66013;DHT22;52783;50.502;8.190;2023-07-20T10:02:41;26.00;99.90
66013;DHT22;52783;50.502;8.190;2023-07-20T10:05:08;26.30;99.90
66013;DHT22;52783;50.502;8.190;2023-07-20T10:07:38;26.30;99.90
66013;DHT22;52783;50.502;8.190;2023-07-20T10:10:06;27.10;99.90
66013;DHT22;52783;50.502;8.190;2023-07-20T10:12:35;27.00;99.90
66013;DHT22;52783;50.502;8.190;2023-07-20T10:18:18;26.00;99.90
66013;DHT22;52783;50.502;8.190;2023-07-20T10:20:50;25.80;99.90
66013;DHT22;52783;50.502;8.190;2023-07-20T10:23:16;26.70;99.90
66013;DHT22;52783;50.502;8.190;2023-07-20T10:25:42;27.30;99.90
66013;DHT22;52783;50.502;8.190;2023-07-20T10:28:10;26.70;99.90
66013;DHT22;52783;50.502;8.190;2023-07-20T10:30:36;26.10;99.90
66013;DHT22;52783;50.502;8.190;2023-07-20T10:33:02;26.20;99.90
66013;DHT22;52783;50.502;8.190;2023-07-20T10:35:28;25.90;99.90
66013;DHT22;52783;50.502;8.190;2023-07-20T10:37:56;24.80;99.90
66013;DHT22;52783;50.502;8.190;2023-07-20T10:40:29;24.90;99.90
66013;DHT22;52783;50.502;8.190;2023-07-20T10:45:35;24.30;99.90
66013;DHT22;52783;50.502;8.190;2023-07-20T10:48:05;24.00;99.90
66013;DHT22;52783;50.502;8.190;2023-07-20T10:50:32;24.40;99.90
66013;DHT22;52783;50.502;8.190;2023-07-20T10:53:19;24.60;99.90
66013;DHT22;52783;50.502;8.190;2023-07-20T10:55:44;24.10;99.90
66013;DHT22;52783;50.502;8.190;2023-07-20T10:58:13;24.30;99.90
66013;DHT22;52783;50.502;8.190;2023-07-20T11:01:02;24.10;99.90
66013;DHT22;52783;50.502;8.190;2023-07-20T11:03:36;24.00;99.90
66013;DHT22;52783;50.502;8.190;2023-07-20T11:09:04;24.60;99.90
66013;DHT22;52783;50.502;8.190;2023-07-20T11:11:33;24.20;99.90
66013;DHT22;52783;50.502;8.190;2023-07-20T11:14:02;24.30;99.90
66013;DHT22;52783;50.502;8.190;2023-07-20T11:19:05;24.10;99.90
66013;DHT22;52783;50.502;8.190;2023-07-20T11:21:41;24.60;99.90
66013;DHT22;52783;50.502;8.190;2023-07-20T11:24:07;24.50;99.90
66013;DHT22;52783;50.502;8.190;2023-07-20T11:26:53;24.70;99.90
66013;DHT22;52783;50.502;8.190;2023-07-20T11:29:20;25.20;99.90
66013;DHT22;52783;50.502;8.190;2023-07-20T11:31:47;25.20;99.90
66013;DHT22;52783;50.502;8.190;2023-07-20T11:34:15;25.00;99.90
66013;DHT22;52783;50.502;8.190;2023-07-20T11:36:41;24.40;99.90
66013;DHT22;52783;50.502;8.190;2023-07-20T11:39:11;24.50;99.90
66013;DHT22;52783;50.502;8.190;2023-07-20T11:41:37;24.00;99.90
66013;DHT22;52783;50.502;8.190;2023-07-20T11:44:04;24.00;99.90
66013;DHT22;52783;50.502;8.190;2023-07-20T11:46:32;24.40;99.90
66013;DHT22;52783;50.502;8.190;2023-07-20T11:48:59;24.40;99.90
66013;DHT22;52783;50.502;8.190;2023-07-20T11:51:28;24.40;99.90
66013;DHT22;52783;50.502;8.190;2023-07-20T11:53:54;24.50;99.90
66013;DHT22;52783;50.502;8.190;2023-07-20T11:56:20;24.30;99.90
66013;DHT22;52783;50.502;8.190;2023-07-20T11:58:46;24.00;99.90
66013;DHT22;52783;50.502;8.190;2023-07-20T12:01:12;23.90;99.90
66013;DHT22;52783;50.502;8.190;2023-07-20T12:03:39;23.70;99.90
66013;DHT22;52783;50.502;8.190;2023-07-20T12:06:08;24.20;99.90
66013;DHT22;52783;50.502;8.190;2023-07-20T12:08:34;24.60;99.90
66013;DHT22;52783;50.502;8.190;2023-07-20T12:11:00;24.80;99.90
66013;DHT22;52783;50.502;8.190;2023-07-20T12:13:36;24.50;99.90
66013;DHT22;52783;50.502;8.190;2023-07-20T12:16:15;24.60;99.90
66013;DHT22;52783;50.502;8.190;2023-07-20T12:18:42;24.40;99.90
66013;DHT22;52783;50.502;8.190;2023-07-20T12:21:09;24.30;99.90
66013;DHT22;52783;50.502;8.190;2023-07-20T12:23:36;24.50;99.90
66013;DHT22;52783;50.502;8.190;2023-07-20T12:26:02;24.40;99.90
66013;DHT22;52783;50.502;8.190;2023-07-20T12:28:29;24.50;99.90
66013;DHT22;52783;50.502;8.190;2023-07-20T12:30:55;24.00;99.90
66013;DHT22;52783;50.502;8.190;2023-07-20T12:33:24;23.80;99.90
66013;DHT22;52783;50.502;8.190;2023-07-20T12:35:49;23.90;99.90
66013;DHT22;52783;50.502;8.190;2023-07-20T12:38:15;24.30;99.90
66013;DHT22;52783;50.502;8.190;2023-07-20T12:40:41;24.40;99.90
66013;DHT22;52783;50.502;8.190;2023-07-20T12:43:07;24.70;99.90
66013;DHT22;52783;50.502;8.190;2023-07-20T12:45:33;24.30;99.90
66013;DHT22;52783;50.502;8.190;2023-07-20T12:47:59;24.50;99.90
66013;DHT22;52783;50.502;8.190;2023-07-20T12:50:25;23.90;99.90
66013;DHT22;52783;50.502;8.190;2023-07-20T12:52:50;23.70;99.90
66013;DHT22;52783;50.502;8.190;2023-07-20T12:55:16;23.70;99.90
66013;DHT22;52783;50.502;8.190;2023-07-20T12:57:41;24.20;99.90
66013;DHT22;52783;50.502;8.190;2023-07-20T13:00:09;24.60;99.90
66013;DHT22;52783;50.502;8.190;2023-07-20T13:02:36;24.80;99.90
66013;DHT22;52783;50.502;8.190;2023-07-20T13:05:02;24.80;99.90
66013;DHT22;52783;50.502;8.190;2023-07-20T13:07:32;24.80;99.90
66013;DHT22;52783;50.502;8.190;2023-07-20T13:09:58;25.00;99.90
66013;DHT22;52783;50.502;8.190;2023-07-20T13:12:29;24.80;99.90
66013;DHT22;52783;50.502;8.190;2023-07-20T13:14:55;25.10;99.90
66013;DHT22;52783;50.502;8.190;2023-07-20T13:17:22;25.30;99.90
66013;DHT22;52783;50.502;8.190;2023-07-20T13:19:48;25.40;99.90
66013;DHT22;52783;50.502;8.190;2023-07-20T13:22:13;25.10;99.90
66013;DHT22;52783;50.502;8.190;2023-07-20T13:24:40;25.20;99.90
66013;DHT22;52783;50.502;8.190;2023-07-20T13:27:06;25.50;99.90
66013;DHT22;52783;50.502;8.190;2023-07-20T13:29:32;25.20;99.90
66013;DHT22;52783;50.502;8.190;2023-07-20T13:31:58;24.70;99.90
66013;DHT22;52783;50.502;8.190;2023-07-20T13:34:25;24.40;99.90
66013;DHT22;52783;50.502;8.190;2023-07-20T13:36:51;24.40;99.90
66013;DHT22;52783;50.502;8.190;2023-07-20T13:39:16;24.10;99.90
66013;DHT22;52783;50.502;8.190;2023-07-20T13:41:42;24.30;99.90
66013;DHT22;52783;50.502;8.190;2023-07-20T13:44:08;24.20;99.90
66013;DHT22;52783;50.502;8.190;2023-07-20T13:46:33;24.10;99.90
66013;DHT22;52783;50.502;8.190;2023-07-20T13:48:59;24.10;99.90
66013;DHT22;52783;50.502;8.190;2023-07-20T13:51:25;23.80;99.90
66013;DHT22;52783;50.502;8.190;2023-07-20T13:53:51;23.70;99.90
66013;DHT22;52783;50.502;8.190;2023-07-20T13:56:17;23.70;99.90
66013;DHT22;52783;50.502;8.190;2023-07-20T13:58:42;23.90;99.90
66013;DHT22;52783;50.502;8.190;2023-07-20T14:01:08;24.00;99.90
66013;DHT22;52783;50.502;8.190;2023-07-20T14:03:33;23.90;99.90
66013;DHT22;52783;50.502;8.190;2023-07-20T14:05:59;24.00;99.90
66013;DHT22;52783;50.502;8.190;2023-07-20T14:08:24;23.70;99.90
66013;DHT22;52783;50.502;8.190;2023-07-20T14:10:50;23.60;99.90
66013;DHT22;52783;50.502;8.190;2023-07-20T14:13:15;23.50;99.90
66013;DHT22;52783;50.502;8.190;2023-07-20T14:15:41;23.20;99.90
66013;DHT22;52783;50.502;8.190;2023-07-20T14:18:07;23.30;99.90
66013;DHT22;52783;50.502;8.190;2023-07-20T14:20:32;23.30;99.90
66013;DHT22;52783;50.502;8.190;2023-07-20T14:22:58;23.20;99.90
66013;DHT22;52783;50.502;8.190;2023-07-20T14:25:23;22.90;99.90
66013;DHT22;52783;50.502;8.190;2023-07-20T14:27:49;23.30;99.90
66013;DHT22;52783;50.502;8.190;2023-07-20T14:30:15;23.50;99.90
66013;DHT22;52783;50.502;8.190;2023-07-20T14:32:41;23.30;99.90
66013;DHT22;52783;50.502;8.190;2023-07-20T14:35:07;23.20;99.90
66013;DHT22;52783;50.502;8.190;2023-07-20T14:37:32;23.20;99.90
66013;DHT22;52783;50.502;8.190;2023-07-20T14:39:58;23.20;99.90
66013;DHT22;52783;50.502;8.190;2023-07-20T14:42:24;23.30;99.90
66013;DHT22;52783;50.502;8.190;2023-07-20T14:44:49;23.40;99.90
66013;DHT22;52783;50.502;8.190;2023-07-20T14:47:15;23.40;99.90
66013;DHT22;52783;50.502;8.190;2023-07-20T14:49:40;23.60;99.90
66013;DHT22;52783;50.502;8.190;2023-07-20T14:52:06;23.60;99.90
66013;DHT22;52783;50.502;8.190;2023-07-20T14:54:32;23.40;99.90
66013;DHT22;52783;50.502;8.190;2023-07-20T14:56:57;23.40;99.90
66013;DHT22;52783;50.502;8.190;2023-07-20T14:59:23;22.80;99.90
66013;DHT22;52783;50.502;8.190;2023-07-20T15:01:48;22.60;99.90
66013;DHT22;52783;50.502;8.190;2023-07-20T15:04:14;22.60;99.90
66013;DHT22;52783;50.502;8.190;2023-07-20T15:06:40;22.80;99.90
66013;DHT22;52783;50.502;8.190;2023-07-20T15:09:06;23.00;99.90
66013;DHT22;52783;50.502;8.190;2023-07-20T15:11:32;23.10;99.90
66013;DHT22;52783;50.502;8.190;2023-07-20T15:13:58;23.10;99.90
66013;DHT22;52783;50.502;8.190;2023-07-20T15:16:24;22.80;99.90
66013;DHT22;52783;50.502;8.190;2023-07-20T15:18:49;22.70;99.90
66013;DHT22;52783;50.502;8.190;2023-07-20T15:21:16;23.00;99.90
66013;DHT22;52783;50.502;8.190;2023-07-20T15:23:44;23.30;99.90
66013;DHT22;52783;50.502;8.190;2023-07-20T15:26:10;23.30;99.90
66013;DHT22;52783;50.502;8.190;2023-07-20T15:28:37;23.20;99.90
66013;DHT22;52783;50.502;8.190;2023-07-20T15:31:03;23.00;99.90
66013;DHT22;52783;50.502;8.190;2023-07-20T15:33:29;22.80;99.90
66013;DHT22;52783;50.502;8.190;2023-07-20T15:35:55;23.00;99.90
66013;DHT22;52783;50.502;8.190;2023-07-20T15:38:21;23.20;99.90
66013;DHT22;52783;50.502;8.190;2023-07-20T15:40:47;23.40;99.90
66013;DHT22;52783;50.502;8.190;2023-07-20T15:43:14;23.50;99.90
66013;DHT22;52783;50.502;8.190;2023-07-20T15:45:40;23.30;99.90
66013;DHT22;52783;50.502;8.190;2023-07-20T15:48:05;23.60;99.90